Time;durP1;ratioP1;P1;durP2;ratioP2;P2;SDS_P1;SDS_P2;PMS_P1;PMS_P2;Temp;Humidity;BMP_temperature;BMP_pressure;BME280_temperature;BME280_humidity;BME280_pressure;Samples;Min_cycle;Max_cycle;Signal;HPM_P1;HPM_P2
2021/05/17 00:01:49;;;;;;;6.90;5.10;;;10.30;98.30;;;;;;5148314;23;20780;-85
2021/05/17 00:03:52;;;;;;;9.17;4.83;;;10.30;98.30;;;;;;5148958;23;20430;-84
2021/05/17 00:05:54;;;;;;;8.63;5.60;;;10.20;98.30;;;;;;5140372;23;20511;-84
2021/05/17 00:07:57;;;;;;;5.60;5.00;;;10.20;98.30;;;;;;5148506;23;20503;-84
2021/05/17 00:10:00;;;;;;;8.07;5.20;;;10.20;98.30;;;;;;5149353;23;20435;-85
2021/05/17 00:12:04;;;;;;;5.50;4.57;;;10.20;98.30;;;;;;5141084;23;20452;-85
2021/05/17 00:14:07;;;;;;;7.07;4.77;;;10.30;98.30;;;;;;5140473;23;20942;-85
2021/05/17 00:16:10;;;;;;;6.20;5.60;;;10.30;98.30;;;;;;5138293;23;20501;-84
2021/05/17 00:18:13;;;;;;;7.30;4.20;;;10.30;98.30;;;;;;5139398;23;20409;-84
2021/05/17 00:20:17;;;;;;;5.30;4.63;;;10.30;98.30;;;;;;5140612;23;20985;-84
2021/05/17 00:22:20;;;;;;;6.70;5.40;;;10.30;98.30;;;;;;5147871;23;20543;-84
2021/05/17 00:24:23;;;;;;;7.77;4.87;;;10.30;98.30;;;;;;5138733;23;20432;-84
2021/05/17 00:26:26;;;;;;;5.57;4.63;;;10.30;98.30;;;;;;5140339;23;20456;-84
2021/05/17 00:28:28;;;;;;;7.40;5.80;;;10.30;98.30;;;;;;5140092;23;20508;-84
2021/05/17 00:30:32;;;;;;;5.63;5.13;;;10.30;98.30;;;;;;5139168;23;20925;-84
2021/05/17 00:32:37;;;;;;;6.50;5.27;;;10.40;98.30;;;;;;5140292;23;20850;-84
2021/05/17 00:34:39;;;;;;;6.17;5.13;;;10.40;98.30;;;;;;5139046;23;20479;-84
2021/05/17 00:36:42;;;;;;;7.23;5.30;;;10.40;98.30;;;;;;5147335;23;20429;-84
2021/05/17 00:38:45;;;;;;;8.87;5.73;;;10.40;98.30;;;;;;5139636;23;20424;-84
2021/05/17 00:40:50;;;;;;;7.50;5.60;;;10.40;98.30;;;;;;5148047;23;20834;-83
2021/05/17 00:42:53;;;;;;;8.07;5.80;;;10.50;98.30;;;;;;5141614;23;20972;-84
2021/05/17 00:44:55;;;;;;;7.73;5.80;;;10.40;98.30;;;;;;5141239;23;20436;-84
2021/05/17 00:46:58;;;;;;;6.90;6.20;;;10.50;98.30;;;;;;5141535;23;20425;-84
2021/05/17 00:49:03;;;;;;;8.50;6.33;;;10.50;98.30;;;;;;5149707;23;20467;-84
2021/05/17 00:51:07;;;;;;;9.83;6.17;;;10.50;98.30;;;;;;5141235;23;20429;-83
2021/05/17 00:53:12;;;;;;;8.83;6.23;;;10.60;98.30;;;;;;5140736;23;20461;-84
2021/05/17 00:55:16;;;;;;;6.87;5.77;;;10.50;98.30;;;;;;5139600;23;20509;-84
2021/05/17 00:57:19;;;;;;;8.67;6.50;;;10.50;98.30;;;;;;5148584;23;20440;-84
2021/05/17 00:59:22;;;;;;;8.80;7.17;;;10.40;98.30;;;;;;5147088;23;20958;-84
2021/05/17 01:01:24;;;;;;;10.70;7.23;;;10.40;98.30;;;;;;5148574;23;20478;-84
2021/05/17 01:03:27;;;;;;;8.50;7.27;;;10.30;98.30;;;;;;5139660;23;20435;-84
2021/05/17 01:05:30;;;;;;;9.83;7.50;;;10.20;98.30;;;;;;5139252;23;20511;-84
2021/05/17 01:07:35;;;;;;;12.00;7.93;;;10.20;98.30;;;;;;5148468;23;20465;-84
2021/05/17 01:09:41;;;;;;;8.33;7.30;;;10.20;98.30;;;;;;5148634;23;20930;-84
2021/05/17 01:11:44;;;;;;;14.63;8.90;;;10.20;98.30;;;;;;5147964;23;20519;-84
2021/05/17 01:13:47;;;;;;;10.40;8.60;;;10.10;98.30;;;;;;5139844;23;20435;-84
2021/05/17 01:15:49;;;;;;;11.90;8.90;;;10.20;98.30;;;;;;5139951;23;20796;-84
2021/05/17 01:17:54;;;;;;;11.47;9.13;;;10.10;98.30;;;;;;5139476;23;20439;-84
2021/05/17 01:20:04;;;;;;;10.50;8.40;;;10.20;98.30;;;;;;5140292;23;20429;-84
2021/05/17 01:22:11;;;;;;;16.63;8.63;;;10.10;98.30;;;;;;5139594;23;20483;-84
2021/05/17 01:24:15;;;;;;;13.83;8.77;;;10.10;98.30;;;;;;5139500;23;20413;-84
2021/05/17 01:26:17;;;;;;;12.90;9.47;;;10.10;98.30;;;;;;5139272;23;20758;-84
2021/05/17 01:28:23;;;;;;;11.30;8.40;;;10.10;98.30;;;;;;5139699;23;20455;-83
2021/05/17 01:30:26;;;;;;;14.00;8.20;;;10.00;98.30;;;;;;5147926;23;20473;-84
2021/05/17 01:32:30;;;;;;;13.57;9.03;;;10.00;98.30;;;;;;5147927;23;20449;-84
2021/05/17 01:34:33;;;;;;;10.83;9.27;;;10.00;98.30;;;;;;5140833;23;20754;-84
2021/05/17 01:36:37;;;;;;;12.00;8.73;;;10.00;98.30;;;;;;5147581;23;20834;-84
2021/05/17 01:38:43;;;;;;;12.63;8.40;;;10.00;98.30;;;;;;5139621;23;20428;-84
2021/05/17 01:40:52;;;;;;;14.30;9.20;;;10.00;98.30;;;;;;5139959;23;20417;-84
2021/05/17 01:42:56;;;;;;;11.13;9.03;;;10.00;98.30;;;;;;5148100;23;20447;-83
2021/05/17 01:45:01;;;;;;;12.00;8.23;;;10.00;98.30;;;;;;5147445;23;20925;-83
2021/05/17 01:47:04;;;;;;;12.00;9.97;;;10.00;98.30;;;;;;5139478;23;20456;-84
2021/05/17 01:49:09;;;;;;;17.37;9.77;;;10.00;98.30;;;;;;5147592;23;20526;-83
2021/05/17 01:51:13;;;;;;;13.17;8.20;;;10.00;98.30;;;;;;5147930;23;20431;-84
2021/05/17 01:53:17;;;;;;;10.70;8.73;;;10.00;98.30;;;;;;5139161;23;20433;-84
2021/05/17 01:55:20;;;;;;;11.80;8.40;;;9.90;98.30;;;;;;5139092;23;20541;-84
2021/05/17 01:57:24;;;;;;;11.37;8.63;;;10.00;98.30;;;;;;5139198;23;20465;-84
2021/05/17 01:59:30;;;;;;;17.73;8.73;;;10.00;98.30;;;;;;5139861;23;20926;-85
2021/05/17 02:01:33;;;;;;;11.80;8.23;;;10.00;98.30;;;;;;5147635;23;20444;-85
2021/05/17 02:03:37;;;;;;;12.80;9.40;;;10.00;98.30;;;;;;5148049;23;20436;-85
2021/05/17 02:05:41;;;;;;;11.50;9.17;;;9.90;98.30;;;;;;5147706;23;20424;-85
2021/05/17 02:07:43;;;;;;;12.50;8.40;;;9.90;98.30;;;;;;5147503;23;20552;-85
2021/05/17 02:09:51;;;;;;;14.00;8.80;;;9.90;98.30;;;;;;5139703;23;20456;-84
2021/05/17 02:11:54;;;;;;;11.90;8.10;;;10.00;98.30;;;;;;5138465;23;20447;-84
2021/05/17 02:13:58;;;;;;;10.73;8.73;;;9.90;98.30;;;;;;5139573;23;20433;-84
2021/05/17 02:16:00;;;;;;;13.33;9.50;;;9.90;98.30;;;;;;5139364;23;20824;-85
2021/05/17 02:18:05;;;;;;;20.50;10.33;;;9.90;98.30;;;;;;5147785;23;20420;-84
2021/05/17 02:20:09;;;;;;;11.93;9.33;;;9.80;98.30;;;;;;5147652;23;20500;-84
2021/05/17 02:22:12;;;;;;;12.50;9.83;;;9.80;98.30;;;;;;5139375;23;20456;-84
2021/05/17 02:24:15;;;;;;;10.50;9.30;;;9.80;98.30;;;;;;5146490;23;20429;-85
2021/05/17 02:26:18;;;;;;;13.07;10.33;;;9.80;98.30;;;;;;5147234;23;20733;-85
2021/05/17 02:28:21;;;;;;;14.33;9.80;;;9.80;98.30;;;;;;5139215;23;20781;-85
2021/05/17 02:30:26;;;;;;;11.90;9.73;;;9.90;98.30;;;;;;5147640;23;20439;-85
2021/05/17 02:32:28;;;;;;;11.90;9.30;;;9.80;98.30;;;;;;5139905;23;21029;-85
2021/05/17 02:34:32;;;;;;;11.60;9.07;;;9.80;98.30;;;;;;5147051;23;20433;-85
2021/05/17 02:36:35;;;;;;;10.90;9.10;;;9.90;98.30;;;;;;5146715;23;20921;-85
2021/05/17 02:38:37;;;;;;;12.87;8.97;;;9.90;98.30;;;;;;5138400;23;20433;-83
2021/05/17 02:40:40;;;;;;;13.60;9.33;;;9.90;98.30;;;;;;5146944;23;20459;-84
2021/05/17 02:42:45;;;;;;;11.27;9.03;;;9.90;98.30;;;;;;5147410;23;20488;-84
2021/05/17 02:44:48;;;;;;;13.37;9.33;;;9.90;98.30;;;;;;5147580;23;20645;-84
2021/05/17 02:46:53;;;;;;;11.60;8.63;;;10.00;98.30;;;;;;5158066;23;20439;-84
2021/05/17 02:48:56;;;;;;;11.43;8.80;;;9.90;98.30;;;;;;5162992;23;20457;-83
2021/05/17 02:51:00;;;;;;;13.40;9.60;;;10.00;98.30;;;;;;5162654;23;20425;-84
2021/05/17 02:53:18;;;;;;;12.97;10.13;;;10.00;98.30;;;;;;5161535;23;20496;-84
2021/05/17 02:55:28;;;;;;;13.40;9.23;;;9.90;98.30;;;;;;5154334;23;20409;-84
2021/05/17 02:57:41;;;;;;;16.67;10.20;;;9.90;98.30;;;;;;5145097;23;20765;-84
2021/05/17 03:00:19;;;;;;;12.67;10.47;;;9.80;98.30;;;;;;5155472;23;20488;-84
2021/05/17 03:02:29;;;;;;;14.40;10.27;;;9.80;98.30;;;;;;5139748;23;20472;-84
2021/05/17 03:04:35;;;;;;;12.53;9.00;;;9.80;98.30;;;;;;5147195;23;20901;-84
2021/05/17 03:06:40;;;;;;;15.23;9.90;;;9.70;98.30;;;;;;5146974;23;20516;-84
2021/05/17 03:08:50;;;;;;;15.13;9.57;;;9.70;98.30;;;;;;5139546;23;20413;-84
2021/05/17 03:10:54;;;;;;;11.50;8.40;;;9.60;98.30;;;;;;5147225;23;20892;-84
2021/05/17 03:13:01;;;;;;;11.10;9.67;;;9.50;98.30;;;;;;5138947;23;20485;-84
2021/05/17 03:15:04;;;;;;;14.90;10.43;;;9.60;98.30;;;;;;5147703;23;20425;-84
2021/05/17 03:17:09;;;;;;;12.37;9.63;;;9.50;98.30;;;;;;5148156;23;20453;-84
2021/05/17 03:19:13;;;;;;;13.50;10.23;;;9.50;98.30;;;;;;5154146;23;20420;-84
2021/05/17 03:21:18;;;;;;;16.13;9.77;;;9.50;98.30;;;;;;5140074;23;20781;-84
2021/05/17 03:23:21;;;;;;;13.47;10.07;;;9.60;98.30;;;;;;5147822;23;20432;-84
2021/05/17 03:25:27;;;;;;;12.03;9.50;;;9.50;98.30;;;;;;5138573;23;20429;-84
2021/05/17 03:27:29;;;;;;;12.53;9.57;;;9.60;98.30;;;;;;5138763;23;20869;-84
2021/05/17 03:29:32;;;;;;;14.00;8.97;;;9.60;98.30;;;;;;5138999;23;20527;-84
2021/05/17 03:31:35;;;;;;;12.53;8.90;;;9.60;98.30;;;;;;5146958;23;20448;-84
2021/05/17 03:33:37;;;;;;;11.47;8.90;;;9.60;98.30;;;;;;5137185;23;20507;-84
2021/05/17 03:35:42;;;;;;;13.90;9.17;;;9.60;98.30;;;;;;5147636;23;20400;-84
2021/05/17 03:37:46;;;;;;;13.33;8.60;;;9.60;98.30;;;;;;5139475;23;20415;-84
2021/05/17 03:39:51;;;;;;;14.40;9.30;;;9.50;98.30;;;;;;5149279;23;20423;-84
2021/05/17 03:41:53;;;;;;;10.27;8.70;;;9.50;98.30;;;;;;5147475;23;20429;-84
2021/05/17 03:43:56;;;;;;;13.97;9.93;;;9.50;98.30;;;;;;5147423;23;20750;-84
2021/05/17 03:45:58;;;;;;;13.30;9.80;;;9.50;98.30;;;;;;5138743;23;20742;-84
2021/05/17 03:48:01;;;;;;;16.20;9.83;;;9.50;98.30;;;;;;5146449;23;20398;-84
2021/05/17 03:50:05;;;;;;;15.53;9.70;;;9.50;98.30;;;;;;5138667;23;20514;-84
2021/05/17 03:52:09;;;;;;;13.77;8.33;;;9.50;98.30;;;;;;5138567;23;20528;-84
2021/05/17 03:54:11;;;;;;;15.70;8.90;;;9.50;98.30;;;;;;5146872;23;20795;-84
2021/05/17 03:56:14;;;;;;;12.57;8.27;;;9.60;98.30;;;;;;5147150;23;20406;-85
2021/05/17 03:58:16;;;;;;;14.20;8.90;;;9.60;98.30;;;;;;5146439;23;20456;-85
2021/05/17 04:00:19;;;;;;;10.80;8.33;;;9.50;98.30;;;;;;5147175;23;20441;-85
2021/05/17 04:02:24;;;;;;;12.60;8.60;;;9.50;98.30;;;;;;5146995;23;20467;-84
2021/05/17 04:04:28;;;;;;;13.37;9.17;;;9.50;98.30;;;;;;5146250;23;20494;-84
2021/05/17 04:06:37;;;;;;;10.77;8.73;;;9.50;98.30;;;;;;5146511;23;20422;-84
2021/05/17 04:13:24;;;;;;;10.80;8.40;;;9.50;98.30;;;;;;5146530;23;20470;-84
2021/05/17 04:15:27;;;;;;;10.90;8.37;;;9.60;98.30;;;;;;5147107;23;20914;-84
2021/05/17 04:17:30;;;;;;;11.30;8.03;;;9.60;98.30;;;;;;5146774;23;20495;-84
2021/05/17 04:19:32;;;;;;;13.63;8.30;;;9.70;98.30;;;;;;5146719;23;20457;-84
2021/05/17 04:21:35;;;;;;;10.10;8.73;;;9.70;98.30;;;;;;5138579;23;20527;-85
2021/05/17 04:23:37;;;;;;;10.00;8.00;;;9.70;98.30;;;;;;5145709;23;20647;-84
2021/05/17 04:25:41;;;;;;;12.90;8.53;;;9.70;98.30;;;;;;5146937;23;20524;-84
2021/05/17 04:27:43;;;;;;;14.33;9.10;;;9.70;98.30;;;;;;5146227;23;20421;-84
2021/05/17 04:29:46;;;;;;;12.90;9.43;;;9.80;98.30;;;;;;5146894;23;21013;-84
2021/05/17 04:31:48;;;;;;;11.80;8.70;;;9.90;98.30;;;;;;5138738;23;20452;-85
2021/05/17 04:33:55;;;;;;;15.07;8.27;;;10.00;98.30;;;;;;5138760;23;20739;-85
2021/05/17 04:35:57;;;;;;;10.03;8.33;;;10.10;98.30;;;;;;5137863;23;20433;-85
2021/05/17 04:37:59;;;;;;;13.00;8.53;;;10.10;98.30;;;;;;5146918;23;20425;-85
2021/05/17 04:40:02;;;;;;;14.57;8.50;;;10.00;98.30;;;;;;5147900;23;20472;-85
2021/05/17 04:42:06;;;;;;;13.60;8.80;;;10.00;98.30;;;;;;5141541;23;20521;-84
2021/05/17 04:44:09;;;;;;;16.23;9.17;;;9.90;98.30;;;;;;5141327;23;20435;-84
2021/05/17 04:46:12;;;;;;;10.43;8.63;;;10.00;98.30;;;;;;5149464;23;20429;-84
2021/05/17 04:48:14;;;;;;;12.80;8.30;;;10.00;98.30;;;;;;5149753;23;20425;-85
2021/05/17 04:50:17;;;;;;;12.47;8.00;;;10.00;98.30;;;;;;5149472;23;20444;-85
2021/05/17 04:52:19;;;;;;;10.77;9.20;;;10.00;98.30;;;;;;5149465;23;20464;-84
2021/05/17 04:54:22;;;;;;;9.57;7.83;;;10.00;98.30;;;;;;5148198;23;20421;-85
2021/05/17 04:56:24;;;;;;;14.67;8.13;;;10.10;98.30;;;;;;5147860;23;20511;-84
2021/05/17 04:58:28;;;;;;;9.87;8.60;;;10.10;98.30;;;;;;5148749;23;20495;-84
2021/05/17 05:00:30;;;;;;;14.10;9.30;;;10.10;98.30;;;;;;5139631;23;20508;-84
2021/05/17 05:04:59;;;;;;;13.13;9.13;;;10.10;98.30;;;;;;5146812;22;20500;-82
2021/05/17 05:07:01;;;;;;;10.47;9.00;;;10.10;98.30;;;;;;5158875;23;20534;-83
2021/05/17 05:09:05;;;;;;;11.03;8.50;;;10.10;98.30;;;;;;5150025;23;20960;-82
2021/05/17 05:11:07;;;;;;;12.30;8.50;;;10.10;98.30;;;;;;5157202;23;20445;-82
2021/05/17 05:13:10;;;;;;;15.53;9.57;;;10.10;98.30;;;;;;5157593;23;20441;-82
2021/05/17 05:15:13;;;;;;;15.33;8.90;;;10.20;98.30;;;;;;5156727;23;20429;-81
2021/05/17 05:17:16;;;;;;;10.43;8.30;;;10.30;98.30;;;;;;5149045;23;20512;-82
2021/05/17 05:19:18;;;;;;;10.17;8.40;;;10.30;98.30;;;;;;5148774;23;20504;-82
2021/05/17 05:21:21;;;;;;;14.70;9.53;;;10.30;98.30;;;;;;5148949;23;20577;-82
2021/05/17 05:23:26;;;;;;;16.20;9.40;;;10.30;98.30;;;;;;5149952;23;20429;-81
2021/05/17 05:25:33;;;;;;;9.87;8.80;;;10.30;98.30;;;;;;5152255;23;20500;-81
2021/05/17 05:27:38;;;;;;;10.60;8.90;;;10.40;98.30;;;;;;5153322;23;20423;-82
2021/05/17 05:30:09;;;;;;;12.27;8.80;;;10.50;98.30;;;;;;5153769;23;20457;-82
2021/05/17 05:32:23;;;;;;;11.90;8.73;;;10.50;98.30;;;;;;5162814;23;20451;-82
2021/05/17 05:34:27;;;;;;;14.13;8.90;;;10.60;98.30;;;;;;5151780;23;20469;-82
2021/05/17 05:36:33;;;;;;;11.50;9.33;;;10.60;98.30;;;;;;5146270;23;20902;-81
2021/05/17 05:38:35;;;;;;;12.87;10.07;;;10.70;98.30;;;;;;5141559;23;20460;-81
2021/05/17 05:40:38;;;;;;;14.23;9.93;;;10.80;98.30;;;;;;5150007;23;20456;-81
2021/05/17 05:42:41;;;;;;;10.97;9.37;;;10.90;98.30;;;;;;5150351;23;20448;-81
2021/05/17 05:44:44;;;;;;;12.03;8.53;;;11.10;98.30;;;;;;5149170;23;20428;-82
2021/05/17 05:46:46;;;;;;;13.47;10.23;;;11.20;98.30;;;;;;5141288;23;20497;-81
2021/05/17 05:48:50;;;;;;;14.03;9.70;;;11.30;98.30;;;;;;5149310;23;20417;-81
2021/05/17 05:50:52;;;;;;;10.33;9.37;;;11.30;98.30;;;;;;5141841;23;20466;-81
2021/05/17 05:52:55;;;;;;;13.90;10.27;;;11.40;98.30;;;;;;5141138;23;20452;-81
2021/05/17 05:55:02;;;;;;;11.30;9.03;;;11.40;98.30;;;;;;5141210;23;20458;-81
2021/05/17 05:57:07;;;;;;;14.87;10.50;;;11.30;98.30;;;;;;5149516;23;20583;-81
2021/05/17 05:59:10;;;;;;;11.30;9.37;;;11.30;98.30;;;;;;5149727;23;20779;-81
2021/05/17 06:01:13;;;;;;;18.07;10.23;;;11.30;98.30;;;;;;5141458;23;20810;-81
2021/05/17 06:03:15;;;;;;;14.77;10.23;;;11.40;98.30;;;;;;5149847;23;20520;-81
2021/05/17 06:05:18;;;;;;;13.37;10.37;;;11.30;98.30;;;;;;5139708;23;20440;-81
2021/05/17 06:07:21;;;;;;;11.80;10.60;;;11.40;98.30;;;;;;5149689;23;20441;-81
2021/05/17 06:09:23;;;;;;;17.23;10.47;;;11.50;98.30;;;;;;5143038;23;20433;-81
2021/05/17 06:11:27;;;;;;;13.40;10.33;;;11.50;98.30;;;;;;5151244;23;20444;-81
2021/05/17 06:13:30;;;;;;;15.63;10.90;;;11.50;98.30;;;;;;5143158;23;20954;-81
2021/05/17 06:15:33;;;;;;;12.33;9.60;;;11.60;98.30;;;;;;5142430;23;20500;-81
2021/05/17 06:17:36;;;;;;;15.67;10.50;;;11.60;98.30;;;;;;5143666;23;20885;-81
2021/05/17 06:19:39;;;;;;;14.80;10.53;;;11.70;98.30;;;;;;5152070;23;20762;-81
2021/05/17 06:21:43;;;;;;;12.53;10.57;;;11.80;98.30;;;;;;5142752;23;20518;-81
2021/05/17 06:23:46;;;;;;;12.93;10.23;;;11.80;98.30;;;;;;5151642;23;20483;-81
2021/05/17 06:25:49;;;;;;;14.93;10.27;;;11.90;98.30;;;;;;5144346;23;20417;-81
2021/05/17 06:27:52;;;;;;;13.87;10.47;;;11.80;98.30;;;;;;5155999;23;20440;-82
2021/05/17 06:29:56;;;;;;;12.57;10.60;;;11.80;98.30;;;;;;5150489;23;20453;-82
2021/05/17 06:31:58;;;;;;;14.90;11.30;;;11.80;98.30;;;;;;5152660;23;20437;-82
2021/05/17 06:34:01;;;;;;;13.93;10.10;;;11.80;98.30;;;;;;5148963;23;20511;-82
2021/05/17 06:36:09;;;;;;;14.60;10.83;;;11.90;98.30;;;;;;5144150;23;20431;-82
2021/05/17 06:38:12;;;;;;;18.77;11.90;;;11.80;98.30;;;;;;5143430;23;20464;-82
2021/05/17 06:40:15;;;;;;;14.33;11.63;;;11.90;98.30;;;;;;5144000;23;20436;-81
2021/05/17 06:42:18;;;;;;;14.10;11.60;;;11.90;98.30;;;;;;5142565;23;20571;-82
2021/05/17 06:44:26;;;;;;;14.57;10.90;;;11.90;98.30;;;;;;5153221;23;20961;-81
2021/05/17 06:46:28;;;;;;;10.30;9.10;;;11.80;98.30;;;;;;5148079;23;20433;-81
2021/05/17 06:48:31;;;;;;;15.47;10.43;;;11.80;98.30;;;;;;5156135;23;20416;-81
2021/05/17 06:50:34;;;;;;;11.13;9.47;;;11.80;98.30;;;;;;5156713;23;20472;-81
2021/05/17 06:52:39;;;;;;;14.07;10.40;;;11.80;98.30;;;;;;5148973;23;20459;-81
2021/05/17 06:54:43;;;;;;;12.17;10.90;;;11.90;98.30;;;;;;5148192;23;20437;-81
2021/05/17 06:56:51;;;;;;;15.87;11.57;;;12.00;98.30;;;;;;5156639;23;20431;-81
2021/05/17 06:58:56;;;;;;;16.23;11.20;;;12.00;98.30;;;;;;5147381;23;20535;-81
2021/05/17 07:00:59;;;;;;;12.80;11.50;;;12.20;98.30;;;;;;5155935;23;20420;-81
2021/05/17 07:03:06;;;;;;;16.20;11.67;;;12.20;98.30;;;;;;5156271;23;20452;-81
2021/05/17 07:05:11;;;;;;;17.77;12.40;;;12.30;98.30;;;;;;5147341;23;20436;-81
2021/05/17 07:07:17;;;;;;;14.67;11.57;;;12.50;98.30;;;;;;5157028;23;20427;-81
2021/05/17 07:11:47;;;;;;;16.90;10.60;;;12.80;98.30;;;;;;5148909;23;20480;-81
2021/05/17 07:13:49;;;;;;;14.33;10.87;;;12.90;98.30;;;;;;5158749;23;20510;-81
2021/05/17 07:15:51;;;;;;;12.83;10.80;;;13.00;98.30;;;;;;5158752;23;20853;-81
2021/05/17 07:17:54;;;;;;;12.80;10.33;;;12.90;98.30;;;;;;5159727;23;20425;-82
2021/05/17 07:19:56;;;;;;;15.00;10.47;;;12.80;98.30;;;;;;5150641;23;20433;-81
2021/05/17 07:24:20;;;;;;;16.97;10.77;;;12.90;98.30;;;;;;5148899;23;20496;-81
2021/05/17 07:26:23;;;;;;;13.30;9.97;;;12.80;98.30;;;;;;5150416;23;20540;-81
2021/05/17 07:28:27;;;;;;;12.53;10.40;;;12.90;98.30;;;;;;5159330;23;20428;-81
2021/05/17 07:30:29;;;;;;;14.27;11.10;;;12.80;98.30;;;;;;5159332;23;20445;-81
2021/05/17 07:32:31;;;;;;;12.43;10.70;;;13.00;98.30;;;;;;5159419;23;20512;-81
2021/05/17 07:34:36;;;;;;;12.87;11.07;;;13.20;98.30;;;;;;5158541;23;20428;-81
2021/05/17 07:36:38;;;;;;;13.27;10.77;;;13.20;98.30;;;;;;5159210;23;20424;-81
2021/05/17 07:38:46;;;;;;;11.20;10.10;;;13.30;98.30;;;;;;5161991;23;20417;-81
2021/05/17 07:40:49;;;;;;;12.40;10.37;;;13.30;98.30;;;;;;5149348;23;20871;-81
2021/05/17 07:42:51;;;;;;;12.67;9.77;;;13.40;98.30;;;;;;5149228;23;20456;-81
2021/05/17 07:44:59;;;;;;;17.23;11.90;;;13.50;98.30;;;;;;5156660;23;20463;-81
2021/05/17 07:47:02;;;;;;;19.73;15.00;;;13.50;98.30;;;;;;5157120;23;20429;-81
2021/05/17 07:49:10;;;;;;;16.93;11.90;;;13.60;98.30;;;;;;5157449;23;20465;-82
2021/05/17 07:51:12;;;;;;;16.20;11.77;;;13.70;98.30;;;;;;5157326;23;20510;-81
2021/05/17 07:53:15;;;;;;;11.37;10.17;;;13.90;98.30;;;;;;5149623;23;20476;-82
2021/05/17 07:55:22;;;;;;;10.60;8.80;;;14.10;98.30;;;;;;5157074;23;20431;-82
2021/05/17 07:57:24;;;;;;;10.10;9.03;;;14.20;98.30;;;;;;5148468;23;20419;-81
2021/05/17 07:59:29;;;;;;;11.93;8.80;;;14.20;98.30;;;;;;5148774;23;20433;-81
2021/05/17 08:01:33;;;;;;;11.63;9.50;;;14.10;98.30;;;;;;5147052;23;20413;-81
2021/05/17 08:03:36;;;;;;;11.37;9.00;;;14.10;98.30;;;;;;5147759;23;20437;-81
2021/05/17 08:05:38;;;;;;;11.00;8.60;;;14.00;98.30;;;;;;5147696;23;20447;-82
2021/05/17 08:07:40;;;;;;;11.77;8.10;;;13.90;98.30;;;;;;5156030;23;20421;-81
2021/05/17 08:09:43;;;;;;;15.20;11.57;;;14.00;98.30;;;;;;5147236;23;20452;-81
2021/05/17 08:11:46;;;;;;;10.63;8.70;;;14.20;98.30;;;;;;5155424;23;20449;-81
2021/05/17 08:13:49;;;;;;;8.53;7.30;;;14.30;98.30;;;;;;5147336;23;20435;-81
2021/05/17 08:15:55;;;;;;;10.33;7.50;;;14.40;98.30;;;;;;5156589;23;20405;-81
2021/05/17 08:18:03;;;;;;;7.03;6.33;;;14.50;98.30;;;;;;5149568;23;20432;-81
2021/05/17 08:20:07;;;;;;;8.37;7.47;;;14.80;98.30;;;;;;5158928;23;20464;-81
2021/05/17 08:22:10;;;;;;;9.40;8.40;;;15.00;98.30;;;;;;5159296;23;20440;-81
2021/05/17 08:24:13;;;;;;;8.87;7.70;;;14.90;98.30;;;;;;5150702;23;20491;-81
2021/05/17 08:26:15;;;;;;;9.43;7.80;;;15.00;98.30;;;;;;5160596;23;20493;-82
2021/05/17 08:28:18;;;;;;;9.23;7.60;;;15.20;98.30;;;;;;5151844;23;20432;-81
2021/05/17 08:30:23;;;;;;;10.40;7.40;;;15.10;98.30;;;;;;5152477;23;20432;-81
2021/05/17 08:32:26;;;;;;;9.80;7.30;;;15.00;98.30;;;;;;5152445;23;20542;-81
2021/05/17 08:34:29;;;;;;;9.00;7.47;;;15.10;98.30;;;;;;5151700;23;20488;-81
2021/05/17 08:36:31;;;;;;;9.63;8.70;;;15.30;98.30;;;;;;5153829;23;20428;-81
2021/05/17 08:38:34;;;;;;;25.83;17.83;;;15.40;98.30;;;;;;5153750;23;20439;-82
2021/05/17 08:40:38;;;;;;;7.80;7.00;;;15.60;98.30;;;;;;5162263;23;20478;-82
2021/05/17 08:42:41;;;;;;;8.27;6.77;;;15.70;98.30;;;;;;5162409;23;20463;-81
2021/05/17 08:44:44;;;;;;;8.87;5.30;;;15.60;98.30;;;;;;5154604;22;20498;-82
2021/05/17 08:46:47;;;;;;;9.33;6.17;;;15.70;98.30;;;;;;5152277;23;20496;-82
2021/05/17 08:48:50;;;;;;;8.20;5.70;;;15.90;98.30;;;;;;5152289;23;20488;-82
2021/05/17 08:50:54;;;;;;;10.30;5.70;;;16.00;98.30;;;;;;5151777;23;20451;-82
2021/05/17 08:52:57;;;;;;;6.63;5.47;;;16.00;98.30;;;;;;5152392;23;20449;-82
2021/05/17 08:54:59;;;;;;;8.83;5.40;;;16.10;98.30;;;;;;5151559;23;20500;-81
2021/05/17 08:57:02;;;;;;;8.97;5.60;;;16.30;98.30;;;;;;5153182;23;20509;-82
2021/05/17 08:59:06;;;;;;;5.30;4.80;;;16.30;98.30;;;;;;5151917;23;20428;-81
2021/05/17 09:01:08;;;;;;;6.83;3.70;;;16.60;98.30;;;;;;5151162;23;20425;-81
2021/05/17 09:03:21;;;;;;;5.90;4.17;;;16.60;96.00;;;;;;5151157;23;20420;-82
2021/05/17 09:05:26;;;;;;;6.97;4.67;;;16.60;97.50;;;;;;5151194;23;20448;-82
2021/05/17 09:07:34;;;;;;;7.37;5.40;;;16.50;97.70;;;;;;5159621;23;20416;-82
2021/05/17 09:09:38;;;;;;;7.03;5.30;;;16.60;98.30;;;;;;5150717;23;20452;-82
2021/05/17 09:11:48;;;;;;;5.40;4.80;;;16.60;98.20;;;;;;5150495;23;20448;-82
2021/05/17 09:14:07;;;;;;;8.30;5.67;;;16.50;98.30;;;;;;5150286;23;20421;-82
2021/05/17 09:16:09;;;;;;;6.20;3.90;;;16.60;96.90;;;;;;5150857;23;20484;-82
2021/05/17 09:18:14;;;;;;;7.00;3.97;;;16.70;97.40;;;;;;5149643;23;20536;-82
2021/05/17 09:20:22;;;;;;;4.13;3.83;;;17.00;97.50;;;;;;5149343;23;20429;-82
2021/05/17 09:22:24;;;;;;;5.80;4.10;;;17.10;95.00;;;;;;5158197;23;20440;-82
2021/05/17 09:24:46;;;;;;;5.27;3.60;;;16.90;94.30;;;;;;5158089;23;20425;-82
2021/05/17 09:26:55;;;;;;;3.90;3.50;;;16.60;95.70;;;;;;5150555;23;20738;-82
2021/05/17 09:28:59;;;;;;;4.27;3.50;;;16.40;96.50;;;;;;5151532;23;20874;-82
2021/05/17 09:31:04;;;;;;;6.27;4.17;;;16.40;97.60;;;;;;5151432;23;20452;-82
2021/05/17 09:33:08;;;;;;;6.23;3.80;;;16.20;97.70;;;;;;5159639;23;20465;-82
2021/05/17 09:35:13;;;;;;;5.47;3.77;;;16.00;96.50;;;;;;5149733;23;20765;-82
2021/05/17 09:37:16;;;;;;;8.63;3.90;;;15.90;98.00;;;;;;5151076;23;20516;-81
2021/05/17 09:39:18;;;;;;;7.20;3.93;;;15.90;98.30;;;;;;5150801;23;20435;-81
2021/05/17 09:41:22;;;;;;;10.90;4.13;;;15.90;98.30;;;;;;5151736;23;20409;-82
2021/05/17 09:43:24;;;;;;;6.20;4.40;;;16.00;98.30;;;;;;5151348;23;20496;-81
2021/05/17 09:45:30;;;;;;;5.10;4.60;;;16.00;98.30;;;;;;5149435;23;20456;-81
2021/05/17 09:47:32;;;;;;;8.03;4.00;;;16.00;98.10;;;;;;5151109;23;20444;-81
2021/05/17 09:49:37;;;;;;;5.93;3.77;;;15.90;98.30;;;;;;5156754;23;20456;-81
2021/05/17 09:51:39;;;;;;;5.37;4.27;;;16.00;97.80;;;;;;5158695;23;20516;-81
2021/05/17 09:53:43;;;;;;;5.30;4.07;;;16.30;97.70;;;;;;5158820;23;20488;-81
2021/05/17 09:55:47;;;;;;;4.70;3.93;;;16.50;96.90;;;;;;5157215;23;20425;-81
2021/05/17 09:57:50;;;;;;;6.23;4.00;;;16.70;96.00;;;;;;5159072;23;20449;-81
2021/05/17 09:59:54;;;;;;;5.17;3.73;;;16.80;95.50;;;;;;5159036;23;20432;-81
2021/05/17 10:01:56;;;;;;;5.37;3.90;;;16.70;93.30;;;;;;5167624;23;20443;-81
2021/05/17 10:04:03;;;;;;;7.67;4.50;;;16.60;93.60;;;;;;5150978;23;20432;-81
2021/05/17 10:06:08;;;;;;;5.00;4.00;;;16.40;94.90;;;;;;5159889;23;20406;-81
2021/05/17 10:08:12;;;;;;;5.10;3.50;;;16.40;93.80;;;;;;5151838;23;20693;-81
2021/05/17 10:10:22;;;;;;;4.00;3.60;;;16.40;94.00;;;;;;5150693;23;20409;-81
2021/05/17 10:12:24;;;;;;;5.80;3.50;;;16.20;94.70;;;;;;5159449;23;20476;-81
2021/05/17 10:14:28;;;;;;;9.30;3.87;;;16.20;94.70;;;;;;5150978;23;20439;-81
2021/05/17 10:16:30;;;;;;;4.33;3.50;;;16.20;94.90;;;;;;5151518;23;20429;-81
2021/05/17 10:18:35;;;;;;;4.60;3.87;;;16.10;95.30;;;;;;5150552;23;20537;-81
2021/05/17 10:20:37;;;;;;;6.00;4.00;;;15.90;96.20;;;;;;5150922;23;20455;-81
2021/05/17 10:22:41;;;;;;;5.90;3.80;;;15.90;97.00;;;;;;5150900;23;20449;-81
2021/05/17 10:24:44;;;;;;;6.10;3.73;;;15.90;97.70;;;;;;5159159;23;20427;-81
2021/05/17 10:26:48;;;;;;;6.77;4.23;;;16.00;98.10;;;;;;5159267;23;20906;-81
2021/05/17 10:28:55;;;;;;;5.33;4.10;;;15.90;97.80;;;;;;5150577;23;20425;-81
2021/05/17 10:31:11;;;;;;;6.43;5.00;;;15.80;98.30;;;;;;5152394;23;20413;-81
2021/05/17 10:33:20;;;;;;;5.97;5.13;;;15.90;98.30;;;;;;5159384;23;20429;-81
2021/05/17 10:35:24;;;;;;;5.80;5.30;;;16.00;98.30;;;;;;5158558;23;20404;-82
2021/05/17 10:37:27;;;;;;;5.97;5.07;;;15.90;98.30;;;;;;5150819;23;20485;-82
2021/05/17 10:39:34;;;;;;;6.70;6.07;;;15.90;98.30;;;;;;5150571;23;20431;-82
2021/05/17 10:41:59;;;;;;;8.57;6.10;;;15.90;98.30;;;;;;5150558;23;20488;-82
2021/05/17 10:44:08;;;;;;;6.27;5.50;;;16.10;98.30;;;;;;5152250;23;20415;-82
2021/05/17 10:48:47;;;;;;;6.63;4.60;;;16.60;98.30;;;;;;5151218;23;20431;-82
2021/05/17 10:50:52;;;;;;;5.57;4.30;;;17.10;98.30;;;;;;5151637;23;20484;-82
2021/05/17 10:52:54;;;;;;;6.07;4.73;;;17.20;97.90;;;;;;5151985;23;20448;-82
2021/05/17 10:55:08;;;;;;;6.40;4.43;;;17.20;96.30;;;;;;5149581;23;20431;-81
2021/05/17 10:57:18;;;;;;;8.83;4.83;;;17.10;97.90;;;;;;5150731;23;20472;-82